Waterville, Vermont
Current Conditions -  °F | °C
As of 12:54 PM on Saturday 25 Oct 2014 (Local Time) from KMVL Reporting Station
Clear Clear  
Wind Chill: 57°   Ceiling: Unl
Heat Index: 57°   Visibility: 10mi
Dew Point: 39°   Wind: 3mph
Humidity: 51%   Direction: 110°ESE
Pressure: 29.65"   Gusts: NA
Location:  44.69°N, 72.77°W
Report Text: KMVL 251654Z AUTO 11003KT 10SM CLR 14/04 A2965 RMK AO2 SLP044 T01390039
Loading
Personal Weather Stations






























Interactive Weather Map
Tropical Storm Tracking
New forecast layout! Learn more

10-Day Weather Forecast

Advertisements
Track Severe Weather on mobile